createdAt,value
2024-03-05T00:00:52.378Z,30.2180
2024-03-05T00:01:54.479Z,30.2040
2024-03-05T00:02:56.576Z,30.2150
2024-03-05T00:03:58.757Z,30.2260
2024-03-05T00:05:01.091Z,30.2260
2024-03-05T00:06:03.091Z,30.2150
2024-03-05T00:07:05.311Z,30.2350
2024-03-05T00:08:07.460Z,30.2290
2024-03-05T00:09:09.662Z,30.2490
2024-03-05T00:10:11.882Z,30.2570
2024-03-05T00:11:14.247Z,30.2420
2024-03-05T00:12:16.285Z,30.2650
2024-03-05T00:13:18.336Z,30.2600
2024-03-05T00:14:20.503Z,30.2610
2024-03-05T00:15:22.704Z,30.2600
2024-03-05T00:16:24.961Z,30.2830
2024-03-05T00:17:27.094Z,30.2830
2024-03-05T00:18:29.265Z,30.2610
2024-03-05T00:19:29.377Z,30.2610
2024-03-05T00:20:31.480Z,30.2610
2024-03-05T00:21:33.664Z,30.2500
2024-03-05T00:22:35.912Z,30.2720
2024-03-05T00:23:38.024Z,30.2390
2024-03-05T00:24:40.202Z,30.2560
2024-03-05T00:25:42.437Z,30.2560
2024-03-05T00:26:44.535Z,30.2650
2024-03-05T00:27:47.008Z,30.2670
2024-03-05T00:28:48.991Z,30.2500
2024-03-05T00:29:51.128Z,30.2440
2024-03-05T00:30:53.321Z,30.2670
2024-03-05T00:31:55.586Z,30.2440
2024-03-05T00:32:57.837Z,30.2440
2024-03-05T00:34:00.054Z,30.2500
2024-03-05T00:35:02.277Z,30.2390
2024-03-05T00:36:04.530Z,30.2390
2024-03-05T00:37:04.575Z,30.2310
2024-03-05T00:38:09.781Z,30.2490
2024-03-05T00:39:09.024Z,30.2710
2024-03-05T00:40:11.376Z,30.2310
2024-03-05T00:41:13.549Z,30.2360
2024-03-05T00:42:15.771Z,30.2360
2024-03-05T00:43:18.049Z,30.2310
2024-03-05T00:44:20.264Z,30.2140
2024-03-05T00:45:22.491Z,30.2140
2024-03-05T00:46:24.764Z,30.1850
2024-03-05T00:47:26.954Z,30.2090
2024-03-05T00:48:27.061Z,30.1850
2024-03-05T00:49:29.294Z,30.1800
2024-03-05T00:50:31.525Z,30.1520
2024-03-05T00:51:33.775Z,30.1740
2024-03-05T00:52:36.136Z,30.1630
2024-03-05T00:53:38.250Z,30.1630
2024-03-05T00:54:40.466Z,30.1410
2024-03-05T00:55:42.745Z,30.1470
2024-03-05T00:56:44.953Z,30.1240
2024-03-05T00:57:47.139Z,30.1030
2024-03-05T00:58:47.352Z,30.1470
2024-03-05T00:59:50.050Z,30.1130
2024-03-05T01:00:51.720Z,30.1130
2024-03-05T01:01:53.994Z,30.1070
2024-03-05T01:02:56.182Z,30.1130
2024-03-05T01:03:58.408Z,30.1070
2024-03-05T01:05:00.619Z,30.0960
2024-03-05T01:06:02.819Z,30.1180
2024-03-05T01:07:05.060Z,30.0790
2024-03-05T01:08:07.334Z,30.0790
2024-03-05T01:09:09.542Z,30.0670
2024-03-05T01:10:11.835Z,30.0740
2024-03-05T01:11:11.901Z,30.0920
2024-03-05T01:12:13.009Z,30.1330
2024-03-05T01:13:13.139Z,30.2360
2024-03-05T01:14:15.417Z,30.3090
2024-03-05T01:15:17.595Z,30.3390
2024-03-05T01:16:19.862Z,30.3760
2024-03-05T01:17:22.062Z,30.4140
2024-03-05T01:18:24.301Z,30.4290
2024-03-05T01:19:26.592Z,30.4100
2024-03-05T01:20:28.795Z,30.4160
2024-03-05T01:21:31.051Z,30.4320
2024-03-05T01:22:33.325Z,30.4270
2024-03-05T01:23:35.590Z,30.4320
2024-03-05T01:24:37.817Z,30.4320
2024-03-05T01:25:40.147Z,30.4200
2024-03-05T01:26:42.292Z,30.4270
2024-03-05T01:27:44.523Z,30.4100
2024-03-05T01:28:46.771Z,30.4210
2024-03-05T01:29:48.959Z,30.4100
2024-03-05T01:30:51.125Z,30.3990
2024-03-05T01:31:53.439Z,30.3880
2024-03-05T01:32:55.564Z,30.4050
2024-03-05T01:33:57.750Z,30.3940
2024-03-05T01:34:57.860Z,30.3650
2024-03-05T01:36:00.013Z,30.3540
2024-03-05T01:37:02.208Z,30.3650
2024-03-05T01:38:04.428Z,30.3540
2024-03-05T01:39:06.618Z,30.3690
2024-03-05T01:40:08.833Z,30.3580
2024-03-05T01:41:11.006Z,30.3580
2024-03-05T01:42:13.213Z,30.3470
2024-03-05T01:43:15.482Z,30.3580
2024-03-05T01:44:17.710Z,30.3410
2024-03-05T01:45:20.042Z,30.3500
2024-03-05T01:46:22.245Z,30.3550
2024-03-05T01:47:24.470Z,30.3670
2024-03-05T01:48:26.731Z,30.3670
2024-03-05T01:49:28.998Z,30.3440
2024-03-05T01:50:31.225Z,30.3550
2024-03-05T01:51:33.466Z,30.3380
2024-03-05T01:52:33.639Z,30.3500
2024-03-05T01:53:35.840Z,30.3330
2024-03-05T01:54:38.111Z,30.3320
2024-03-05T01:55:40.457Z,30.3480
2024-03-05T01:56:42.574Z,30.3540
2024-03-05T01:57:44.820Z,30.3480
2024-03-05T01:58:47.182Z,30.3730
2024-03-05T01:59:49.324Z,30.3550
2024-03-05T02:00:51.658Z,30.3270
2024-03-05T02:01:53.867Z,30.3270
2024-03-05T02:02:56.004Z,30.3140
2024-03-05T02:03:58.225Z,30.3190
2024-03-05T02:05:00.504Z,30.3370
2024-03-05T02:06:02.684Z,30.3320
2024-03-05T02:07:04.847Z,30.3190
2024-03-05T02:08:07.053Z,30.3080
2024-03-05T02:09:09.282Z,30.3260
2024-03-05T02:10:09.426Z,30.3260
2024-03-05T02:11:11.774Z,30.3370
2024-03-05T02:12:13.942Z,30.3140
2024-03-05T02:13:16.233Z,30.3140
2024-03-05T02:14:16.351Z,30.3080
2024-03-05T02:15:18.577Z,30.3140
2024-03-05T02:16:20.913Z,30.3320
2024-03-05T02:17:23.064Z,30.3120
2024-03-05T02:18:25.238Z,30.3070
2024-03-05T02:19:25.273Z,30.3070
2024-03-05T02:20:27.422Z,30.3010
2024-03-05T02:21:29.637Z,31.5790
2024-03-05T02:22:31.843Z,32.2460
2024-03-05T02:23:34.044Z,32.1610
2024-03-05T02:24:36.268Z,31.8640
2024-03-05T02:25:38.506Z,31.6040
2024-03-05T02:26:40.696Z,31.2640
2024-03-05T02:27:42.907Z,31.2250
2024-03-05T02:28:45.201Z,31.2250
2024-03-05T02:29:45.187Z,31.1570
2024-03-05T02:30:47.401Z,31.1630
2024-03-05T02:31:49.834Z,31.1330
2024-03-05T02:32:51.893Z,31.0720
2024-03-05T02:33:54.061Z,31.0200
2024-03-05T02:34:56.298Z,30.9670
2024-03-05T02:35:58.461Z,30.9270
2024-03-05T02:37:00.667Z,30.9280
2024-03-05T02:38:02.916Z,30.8680
2024-03-05T02:39:05.064Z,30.8530
2024-03-05T02:40:07.285Z,30.8130
2024-03-05T02:41:09.505Z,30.7970
2024-03-05T02:42:11.757Z,30.7700
2024-03-05T02:43:14.009Z,30.7300
2024-03-05T02:44:16.252Z,30.7130
2024-03-05T02:45:18.446Z,30.6950
2024-03-05T02:46:20.831Z,30.6730
2024-03-05T02:47:22.960Z,30.6580
2024-03-05T02:48:25.132Z,30.6460
2024-03-05T02:49:27.377Z,30.6350
2024-03-05T02:50:29.601Z,30.5970
2024-03-05T02:51:31.872Z,30.5860
2024-03-05T02:52:34.114Z,30.5890
2024-03-05T02:53:36.371Z,30.5430
2024-03-05T02:54:38.719Z,30.5330
2024-03-05T02:55:40.935Z,30.5050
2024-03-05T02:56:43.099Z,30.5050
2024-03-05T02:57:45.625Z,30.4670
2024-03-05T02:58:47.584Z,30.4670
2024-03-05T02:59:49.649Z,30.4400
2024-03-05T03:00:51.842Z,30.4220
2024-03-05T03:01:54.129Z,30.4320
2024-03-05T03:02:56.395Z,30.3930
2024-03-05T03:03:58.428Z,30.4210
2024-03-05T03:05:00.687Z,30.4210
2024-03-05T03:06:00.638Z,30.3810
2024-03-05T03:07:02.843Z,30.3590
2024-03-05T03:08:05.061Z,30.3540
2024-03-05T03:09:07.229Z,30.3530
2024-03-05T03:10:09.436Z,30.3540
2024-03-05T03:11:11.731Z,30.3270
2024-03-05T03:12:13.856Z,30.3210
2024-03-05T03:13:16.131Z,30.3160
2024-03-05T03:14:18.279Z,30.3330
2024-03-05T03:15:20.456Z,30.3100
2024-03-05T03:16:20.545Z,30.2920
2024-03-05T03:17:22.723Z,30.2980
2024-03-05T03:18:25.019Z,30.3100
2024-03-05T03:19:27.176Z,30.2870
2024-03-05T03:20:29.415Z,30.2920
2024-03-05T03:21:29.534Z,30.2810
2024-03-05T03:22:31.873Z,30.2700
2024-03-05T03:23:33.948Z,30.2600
2024-03-05T03:24:36.114Z,30.2440
2024-03-05T03:25:41.959Z,30.2250
2024-03-05T03:26:40.517Z,30.2470
2024-03-05T03:27:42.738Z,30.2310
2024-03-05T03:28:44.993Z,30.2210
2024-03-05T03:29:47.153Z,30.2250
2024-03-05T03:30:49.357Z,30.2160
2024-03-05T03:31:51.620Z,30.2210
2024-03-05T03:32:53.811Z,30.2100
2024-03-05T03:33:55.982Z,30.2100
2024-03-05T03:34:58.133Z,30.1990
2024-03-05T03:36:00.235Z,30.2050
2024-03-05T03:37:00.323Z,30.2050
2024-03-05T03:38:02.506Z,30.1880
2024-03-05T03:39:04.706Z,30.1910
2024-03-05T03:40:06.837Z,30.1850
2024-03-05T03:41:09.030Z,30.1930
2024-03-05T03:42:11.189Z,30.1880
2024-03-05T03:43:13.412Z,30.1820
2024-03-05T03:44:15.578Z,30.1700
2024-03-05T03:45:17.762Z,30.1700
2024-03-05T03:46:20.056Z,30.1770
2024-03-05T03:47:22.069Z,30.1650
2024-03-05T03:48:22.124Z,30.1580
2024-03-05T03:49:24.423Z,30.1540
2024-03-05T03:50:26.539Z,30.1880
2024-03-05T03:51:28.729Z,30.1580
2024-03-05T03:52:30.907Z,30.1630
2024-03-05T03:53:33.092Z,30.1520
2024-03-05T03:54:35.277Z,30.1470
2024-03-05T03:55:37.446Z,30.1470
2024-03-05T03:56:39.583Z,30.1520
2024-03-05T03:57:41.752Z,31.6080
2024-03-05T03:58:43.975Z,32.6450
2024-03-05T03:59:46.117Z,32.7450
2024-03-05T04:00:48.293Z,32.5520
2024-03-05T04:01:50.486Z,32.1970
2024-03-05T04:02:52.638Z,31.9580
2024-03-05T04:03:54.839Z,31.6160
2024-03-05T04:04:57.032Z,31.5520
2024-03-05T04:05:59.170Z,31.6260
2024-03-05T04:07:01.334Z,31.6720
2024-03-05T04:08:05.091Z,31.6720
2024-03-05T04:09:05.690Z,31.6770
2024-03-05T04:10:07.858Z,31.7680
2024-03-05T04:11:10.226Z,31.6400
2024-03-05T04:12:12.176Z,33.5940
2024-03-05T04:13:14.387Z,33.4670
2024-03-05T04:14:16.700Z,33.0740
2024-03-05T04:15:18.755Z,32.8640
2024-03-05T04:16:18.818Z,32.8450
2024-03-05T04:17:21.025Z,32.8470
2024-03-05T04:18:23.216Z,33.1520
2024-03-05T04:19:25.484Z,33.3440
2024-03-05T04:20:27.672Z,33.5110
2024-03-05T04:21:27.679Z,33.5250
2024-03-05T04:22:29.891Z,33.5450
2024-03-05T04:23:32.076Z,33.6720
2024-03-05T04:24:34.254Z,33.6990
2024-03-05T04:25:36.492Z,33.8470
2024-03-05T04:26:38.686Z,33.8880
2024-03-05T04:27:40.956Z,33.9520
2024-03-05T04:28:43.297Z,34.0440
2024-03-05T04:29:45.476Z,32.1980
2024-03-05T04:30:47.685Z,31.8960
2024-03-05T04:31:54.223Z,31.8940
2024-03-05T04:32:59.256Z,32.0300
2024-03-05T04:33:54.506Z,32.3460
2024-03-05T04:34:54.661Z,32.2550
2024-03-05T04:35:56.977Z,32.1760
2024-03-05T04:36:59.692Z,32.3230
2024-03-05T04:38:01.591Z,32.2900
2024-03-05T04:39:03.882Z,32.1940
2024-03-05T04:40:06.156Z,32.4620
2024-03-05T04:41:08.445Z,32.4600
2024-03-05T04:42:10.683Z,32.4860
2024-03-05T04:43:12.895Z,32.4580
2024-03-05T04:44:15.174Z,32.4310
2024-03-05T04:45:17.400Z,32.3890
2024-03-05T04:46:19.646Z,32.3260
2024-03-05T04:47:21.918Z,32.3160
2024-03-05T04:48:24.066Z,32.2630
2024-03-05T04:49:26.391Z,32.1860
2024-03-05T04:50:28.585Z,32.1680
2024-03-05T04:51:30.931Z,32.1490
2024-03-05T04:52:33.269Z,32.1190
2024-03-05T04:53:35.267Z,32.0550
2024-03-05T04:54:37.518Z,32.0340
2024-03-05T04:55:39.765Z,31.9810
2024-03-05T04:56:41.968Z,31.9380
2024-03-05T04:57:44.241Z,31.8990
2024-03-05T04:58:44.310Z,31.8780
2024-03-05T04:59:47.476Z,31.8350
2024-03-05T05:00:48.805Z,31.8310
2024-03-05T05:02:40.392Z,31.6540
2024-03-05T05:03:42.482Z,31.4950
2024-03-05T05:04:44.694Z,31.4150
2024-03-05T05:05:46.858Z,31.3650
2024-03-05T05:06:49.136Z,31.3290
2024-03-05T05:07:51.290Z,31.2850
2024-03-05T05:08:53.454Z,31.2130
2024-03-05T05:09:55.690Z,31.2130
2024-03-05T05:10:57.957Z,31.1550
2024-03-05T05:12:00.142Z,31.1280
2024-03-05T05:13:02.254Z,31.1340
2024-03-05T05:14:04.476Z,31.1080
2024-03-05T05:15:06.686Z,31.0590
2024-03-05T05:16:08.845Z,31.0460
2024-03-05T05:17:11.063Z,31.0180
2024-03-05T05:18:11.148Z,31.0120
2024-03-05T05:19:13.350Z,30.9920
2024-03-05T05:20:15.539Z,30.9680
2024-03-05T05:21:17.651Z,30.9680
2024-03-05T05:22:19.912Z,30.9670
2024-03-05T05:23:21.993Z,30.9240
2024-03-05T05:24:24.179Z,30.9120
2024-03-05T05:25:26.424Z,30.8950
2024-03-05T05:26:28.554Z,30.9090
2024-03-05T05:27:30.766Z,30.9160
2024-03-05T05:28:33.005Z,30.8990
2024-03-05T05:29:40.643Z,30.8760
2024-03-05T05:30:37.352Z,30.8940
2024-03-05T05:31:39.536Z,30.8790
2024-03-05T05:32:41.996Z,30.8550
2024-03-05T05:33:43.950Z,30.8640
2024-03-05T05:34:46.153Z,29.3590
2024-03-05T05:35:48.347Z,29.4130
2024-03-05T05:36:48.387Z,29.8040
2024-03-05T05:37:50.648Z,30.1210
2024-03-05T05:38:52.773Z,30.4480
2024-03-05T05:39:54.985Z,30.6560
2024-03-05T05:40:57.321Z,30.7200
2024-03-05T05:43:29.601Z,30.8840
2024-03-05T05:44:31.731Z,30.9010
2024-03-05T05:45:33.935Z,30.9160
2024-03-05T05:46:36.295Z,30.8740
2024-03-05T05:47:38.437Z,30.8630
2024-03-05T05:48:40.670Z,30.8270
2024-03-05T05:49:42.918Z,30.7700
2024-03-05T05:50:45.088Z,30.8090
2024-03-05T05:51:45.191Z,30.8350
2024-03-05T05:52:47.423Z,30.8630
2024-03-05T05:53:49.645Z,30.8750
2024-03-05T05:54:51.880Z,30.8430
2024-03-05T05:55:54.140Z,30.8700
2024-03-05T05:56:56.273Z,30.8840
2024-03-05T05:57:58.911Z,30.9060
2024-03-05T05:59:00.821Z,30.9110
2024-03-05T06:00:02.861Z,30.9170
2024-03-05T06:01:05.048Z,30.8800
2024-03-05T06:02:07.371Z,30.8340
2024-03-05T06:03:09.680Z,30.8340
2024-03-05T06:04:11.676Z,30.8340
2024-03-05T06:05:13.889Z,30.8520
2024-03-05T06:06:16.071Z,30.8520
2024-03-05T06:07:16.224Z,30.8500
2024-03-05T06:08:18.370Z,30.8800
2024-03-05T06:09:20.604Z,30.8640
2024-03-05T06:10:22.859Z,30.8910
2024-03-05T06:11:25.069Z,30.8820
2024-03-05T06:12:27.277Z,30.8940
2024-03-05T06:13:29.512Z,30.8990
2024-03-05T06:14:31.750Z,30.9270
2024-03-05T06:15:33.945Z,30.9200
2024-03-05T06:16:36.337Z,30.8910
2024-03-05T06:17:38.382Z,31.0050
2024-03-05T06:18:40.489Z,31.1590
2024-03-05T06:19:42.746Z,31.1910
2024-03-05T06:20:44.922Z,31.2250
2024-03-05T06:21:44.979Z,31.2640
2024-03-05T06:22:47.284Z,31.2420
2024-03-05T06:23:49.410Z,31.2210
2024-03-05T06:24:51.633Z,31.2230
2024-03-05T06:25:53.819Z,31.1950
2024-03-05T06:26:56.021Z,31.1920
2024-03-05T06:27:58.239Z,31.0820
2024-03-05T06:29:00.450Z,31.0080
2024-03-05T06:30:02.527Z,30.9310
2024-03-05T06:31:04.683Z,30.8940
2024-03-05T06:32:06.934Z,30.8390
2024-03-05T06:33:09.143Z,30.7270
2024-03-05T06:34:11.180Z,30.7460
2024-03-05T06:35:13.404Z,30.6720
2024-03-05T06:36:15.527Z,30.5600
2024-03-05T06:37:17.722Z,30.4840
2024-03-05T06:38:19.837Z,30.3950
2024-03-05T06:39:21.955Z,30.2050
2024-03-05T06:40:25.133Z,30.2350
2024-03-05T06:41:26.173Z,30.0390
2024-03-05T06:42:28.313Z,29.8190
2024-03-05T06:43:30.503Z,29.6710
2024-03-05T06:44:32.587Z,29.7610
2024-03-05T06:45:34.751Z,29.7490
2024-03-05T06:46:36.905Z,29.7780
2024-03-05T06:47:39.058Z,29.7330
2024-03-05T06:48:41.203Z,29.6820
2024-03-05T06:49:43.348Z,29.6560
2024-03-05T06:50:45.399Z,29.6170
2024-03-05T06:51:47.545Z,29.6110
2024-03-05T06:52:49.779Z,29.6280
2024-03-05T06:53:51.894Z,29.6900
2024-03-05T06:54:53.973Z,29.6960
2024-03-05T06:55:56.358Z,29.7010
2024-03-05T06:56:58.270Z,29.6590
2024-03-05T06:58:00.520Z,29.6750
2024-03-05T06:59:02.819Z,29.5970
2024-03-05T07:00:04.858Z,29.6140
2024-03-05T07:01:07.115Z,29.6250
2024-03-05T07:02:07.140Z,29.5680
2024-03-05T07:03:09.267Z,29.5520
2024-03-05T07:04:11.512Z,29.5900
2024-03-05T07:05:13.780Z,29.5900
2024-03-05T07:06:15.998Z,29.5850
2024-03-05T07:07:18.312Z,29.5740
2024-03-05T07:08:20.509Z,29.5570
2024-03-05T07:09:22.771Z,29.5740
2024-03-05T07:10:25.032Z,29.5680
2024-03-05T07:11:27.366Z,29.5680
2024-03-05T07:12:28.366Z,29.6600
2024-03-05T07:13:30.635Z,29.7530
2024-03-05T07:14:32.838Z,29.8140
2024-03-05T07:15:32.911Z,29.8760
2024-03-05T07:16:35.189Z,29.9250
2024-03-05T07:17:37.456Z,29.9530
2024-03-05T07:18:39.645Z,29.9530
2024-03-05T07:19:41.916Z,29.9620
2024-03-05T07:20:44.099Z,29.9950
2024-03-05T07:21:46.281Z,29.9990
2024-03-05T07:22:48.580Z,30.0030
2024-03-05T07:23:50.747Z,30.0200
2024-03-05T07:24:53.003Z,30.0360
2024-03-05T07:25:55.331Z,30.0360
2024-03-05T07:27:04.639Z,30.0500
2024-03-05T07:27:59.659Z,30.0540
2024-03-05T07:29:02.029Z,30.0540
2024-03-05T07:30:04.080Z,30.0600
2024-03-05T07:31:06.279Z,30.0360
2024-03-05T07:32:08.545Z,30.0710
2024-03-05T07:33:10.766Z,30.0710
2024-03-05T07:34:12.925Z,30.0750
2024-03-05T07:35:15.162Z,30.1020
2024-03-05T07:36:17.343Z,30.0970
2024-03-05T07:37:19.578Z,30.0860
2024-03-05T07:38:21.748Z,30.1080
2024-03-05T07:39:23.963Z,30.1250
2024-03-05T07:40:26.230Z,30.1080
2024-03-05T07:41:33.827Z,30.1170
2024-03-05T07:42:30.597Z,30.1390
2024-03-05T07:43:32.911Z,30.1280
2024-03-05T07:44:34.986Z,30.1390
2024-03-05T07:45:37.235Z,30.1170
2024-03-05T07:46:39.479Z,30.1280
2024-03-05T07:47:41.664Z,30.1370
2024-03-05T07:48:43.872Z,30.1370
2024-03-05T07:49:46.081Z,30.1310
2024-03-05T07:50:48.339Z,30.1480
2024-03-05T07:51:48.352Z,30.1370
2024-03-05T07:52:50.628Z,30.1460
2024-03-05T07:53:52.867Z,30.1390
2024-03-05T07:54:55.045Z,30.1460
2024-03-05T07:55:57.406Z,30.1570
2024-03-05T07:56:59.602Z,30.1570
2024-03-05T07:58:01.820Z,30.1570
2024-03-05T07:59:04.060Z,30.1740
2024-03-05T08:00:06.237Z,30.1590
2024-03-05T08:01:06.345Z,30.1590
2024-03-05T08:02:08.441Z,30.1530
2024-03-05T08:03:10.578Z,30.1640
2024-03-05T08:04:12.773Z,30.1700
2024-03-05T08:05:14.958Z,30.1590
2024-03-05T08:06:17.148Z,30.1640
2024-03-05T08:07:17.305Z,30.1530
2024-03-05T08:08:19.399Z,30.1530
2024-03-05T08:09:21.588Z,30.1680
2024-03-05T08:10:23.907Z,30.1680
2024-03-05T08:11:26.015Z,30.1790
2024-03-05T08:12:28.190Z,30.1530
2024-03-05T08:13:30.443Z,30.1530
2024-03-05T08:14:32.630Z,30.1640
2024-03-05T08:15:34.857Z,30.1590
2024-03-05T08:16:37.113Z,30.1530
2024-03-05T08:17:39.334Z,30.1530
2024-03-05T08:18:41.454Z,30.1590
2024-03-05T08:19:43.713Z,30.1370
2024-03-05T08:20:45.891Z,30.1190
2024-03-05T08:21:45.957Z,30.1250
2024-03-05T08:22:48.323Z,30.1250
2024-03-05T08:23:50.448Z,30.1080
2024-03-05T08:24:52.693Z,30.1050
2024-03-05T08:25:55.031Z,30.0930
2024-03-05T08:26:57.160Z,30.1080
2024-03-05T08:27:59.758Z,30.1250
2024-03-05T08:29:01.719Z,30.1370
2024-03-05T08:30:03.857Z,30.1310
2024-03-05T08:31:06.061Z,30.1130
2024-03-05T08:32:08.286Z,30.0930
2024-03-05T08:33:10.479Z,30.0930
2024-03-05T08:34:12.626Z,30.0870
2024-03-05T08:35:14.838Z,30.0870
2024-03-05T08:36:17.152Z,30.0670
2024-03-05T08:37:19.316Z,30.0600
2024-03-05T08:38:21.482Z,30.0540
2024-03-05T08:39:23.672Z,30.0760
2024-03-05T08:40:23.780Z,30.0540
2024-03-05T08:41:25.946Z,30.0650
2024-03-05T08:42:28.111Z,30.0600
2024-03-05T08:43:30.368Z,30.0650
2024-03-05T08:44:32.533Z,30.0360
2024-03-05T08:45:34.646Z,30.0710
2024-03-05T08:46:34.693Z,30.0520
2024-03-05T08:47:36.841Z,30.0520
2024-03-05T08:48:38.995Z,30.0640
2024-03-05T08:49:41.165Z,30.0570
2024-03-05T08:50:43.301Z,30.0460
2024-03-05T08:51:45.524Z,30.0570
2024-03-05T08:52:45.698Z,30.0520
2024-03-05T08:53:47.897Z,30.0460
2024-03-05T08:54:50.089Z,30.0520
2024-03-05T08:55:52.393Z,30.0350
2024-03-05T08:56:54.621Z,30.0570
2024-03-05T08:57:56.788Z,30.0520
2024-03-05T08:58:59.039Z,30.0410
2024-03-05T09:00:06.735Z,30.0410
2024-03-05T09:01:03.388Z,30.0560
2024-03-05T09:02:05.616Z,30.0640
2024-03-05T09:03:07.732Z,30.0350
2024-03-05T09:04:09.957Z,30.0350
2024-03-05T09:05:12.199Z,30.0350
2024-03-05T09:06:14.328Z,30.0350
2024-03-05T09:07:16.461Z,30.0350
2024-03-05T09:08:18.660Z,30.0410
2024-03-05T09:09:20.852Z,30.0240
2024-03-05T09:10:23.070Z,30.0300
2024-03-05T09:11:25.249Z,30.0240
2024-03-05T09:12:27.428Z,30.0180
2024-03-05T09:13:29.637Z,30.0180
2024-03-05T09:14:31.874Z,30.0180
2024-03-05T09:15:34.097Z,30.0050
2024-03-05T09:16:36.327Z,30.0390
2024-03-05T09:17:38.578Z,30.0440
2024-03-05T09:18:40.709Z,30.0460
2024-03-05T09:19:42.955Z,30.0130
2024-03-05T09:20:45.128Z,29.9620
2024-03-05T09:21:45.177Z,29.9170
2024-03-05T09:22:47.935Z,29.8340
2024-03-05T09:23:49.580Z,29.6660
2024-03-05T09:26:09.090Z,29.3740
2024-03-05T09:27:11.215Z,29.2150
2024-03-05T09:28:11.257Z,29.2870
2024-03-05T09:29:14.942Z,28.9330
2024-03-05T09:30:15.725Z,29.0850
2024-03-05T09:31:17.825Z,29.0150
2024-03-05T09:32:19.782Z,29.0210
2024-03-05T09:33:21.961Z,28.9750
2024-03-05T09:34:24.116Z,28.9590
2024-03-05T09:35:26.286Z,28.9410
2024-03-05T09:36:28.385Z,28.9080
2024-03-05T09:37:30.556Z,28.8920
2024-03-05T09:38:32.653Z,28.8690
2024-03-05T09:39:34.801Z,28.8480
2024-03-05T09:40:37.018Z,28.8770
2024-03-05T09:41:39.134Z,28.8650
2024-03-05T09:42:41.274Z,28.8590
2024-03-05T09:43:43.478Z,28.8650
2024-03-05T09:44:45.657Z,28.8850
2024-03-05T09:45:47.844Z,28.8970
2024-03-05T09:46:50.046Z,28.9140
2024-03-05T09:47:52.134Z,28.9640
2024-03-05T09:48:55.487Z,28.9850
2024-03-05T09:49:56.469Z,29.0000
2024-03-05T09:50:58.615Z,28.9940
2024-03-05T09:52:00.880Z,29.0260
2024-03-05T09:53:03.128Z,29.0310
2024-03-05T09:54:05.141Z,29.0580
2024-03-05T09:55:07.395Z,29.0620
2024-03-05T09:56:09.691Z,29.1290
2024-03-05T09:57:11.695Z,29.2560
2024-03-05T09:58:13.860Z,29.1730
2024-03-05T09:59:16.035Z,29.1530
2024-03-05T10:00:18.174Z,29.1580
2024-03-05T10:01:20.342Z,29.1940
2024-03-05T10:02:22.545Z,29.2200
2024-03-05T10:03:24.634Z,29.2450
2024-03-05T10:04:26.846Z,29.2870
2024-03-05T10:05:29.045Z,29.3340
2024-03-05T10:06:31.163Z,29.3660
2024-03-05T10:07:31.305Z,29.3930
2024-03-05T10:09:08.797Z,29.4810
2024-03-05T10:10:10.947Z,29.5020
2024-03-05T10:11:13.208Z,29.5150
2024-03-05T10:12:15.273Z,29.5660
2024-03-05T10:13:17.414Z,29.5800
2024-03-05T10:14:19.567Z,29.6030
2024-03-05T10:15:21.839Z,29.6240
2024-03-05T10:16:21.757Z,29.6560
2024-03-05T10:17:24.018Z,29.6760
2024-03-05T10:18:26.183Z,29.7100
2024-03-05T10:19:28.378Z,29.7150
2024-03-05T10:20:30.601Z,29.7470
2024-03-05T10:21:32.775Z,29.7520
2024-03-05T10:22:32.927Z,29.7720
2024-03-05T10:23:35.109Z,29.8040
2024-03-05T10:24:37.296Z,29.8260
2024-03-05T10:25:39.545Z,29.8240
2024-03-05T10:26:41.742Z,29.8640
2024-03-05T10:27:43.942Z,29.8740
2024-03-05T10:28:46.231Z,29.8850
2024-03-05T10:29:48.391Z,29.9070
2024-03-05T10:30:48.450Z,29.9270
2024-03-05T10:31:50.663Z,29.9380
2024-03-05T10:32:52.808Z,29.9510
2024-03-05T10:33:55.084Z,29.9880
2024-03-05T10:34:57.358Z,29.9770
2024-03-05T10:35:59.445Z,29.9990
2024-03-05T10:37:01.690Z,30.0040
2024-03-05T10:38:03.965Z,30.0150
2024-03-05T10:39:06.124Z,30.0380
2024-03-05T10:40:08.341Z,30.0380
2024-03-05T10:41:10.585Z,30.0330
2024-03-05T10:42:12.713Z,30.0440
2024-03-05T10:43:14.911Z,30.0660
2024-03-05T10:44:17.291Z,30.0440
2024-03-05T10:45:19.367Z,30.0440
2024-03-05T10:46:21.620Z,30.0340
2024-03-05T10:47:25.936Z,30.0440
2024-03-05T10:48:26.199Z,30.0770
2024-03-05T10:49:28.371Z,30.0720
2024-03-05T10:50:30.520Z,30.0610
2024-03-05T10:51:32.769Z,30.0750
2024-03-05T10:52:35.016Z,30.0750
2024-03-05T10:53:37.207Z,30.0770
2024-03-05T10:54:39.485Z,30.0870
2024-03-05T10:55:40.574Z,30.0700
2024-03-05T10:56:44.767Z,30.0920
2024-03-05T10:57:43.937Z,30.0980
2024-03-05T10:58:46.157Z,30.0980
2024-03-05T10:59:48.285Z,30.1030
2024-03-05T11:00:50.458Z,30.1090
2024-03-05T11:01:52.621Z,30.1090
2024-03-05T11:02:54.798Z,30.1070
2024-03-05T11:03:57.035Z,30.1130
2024-03-05T11:04:59.429Z,30.1130
2024-03-05T11:06:01.513Z,30.1070
2024-03-05T11:07:03.759Z,30.1130
2024-03-05T11:08:06.116Z,30.1130
2024-03-05T11:09:08.268Z,30.1020
2024-03-05T11:10:10.537Z,30.0960
2024-03-05T11:11:10.780Z,30.0910
2024-03-05T11:12:12.788Z,30.0960
2024-03-05T11:13:14.994Z,30.0740
2024-03-05T11:14:17.286Z,30.0700
2024-03-05T11:15:19.438Z,30.0640
2024-03-05T11:16:21.788Z,30.0250
2024-03-05T11:17:23.915Z,30.0300
2024-03-05T11:18:26.016Z,30.0240
2024-03-05T11:19:28.292Z,30.0300
2024-03-05T11:20:30.507Z,29.9840
2024-03-05T11:21:32.698Z,30.0080
2024-03-05T11:22:34.886Z,29.9740
2024-03-05T11:23:37.071Z,29.9350
2024-03-05T11:24:39.249Z,29.8900
2024-03-05T11:25:41.453Z,29.8720
2024-03-05T11:26:43.603Z,29.8280
2024-03-05T11:27:43.693Z,29.7530
2024-03-05T11:28:45.966Z,29.7420
2024-03-05T11:29:48.149Z,29.7470
2024-03-05T11:30:50.349Z,29.6720
2024-03-05T11:31:52.605Z,29.7170
2024-03-05T11:32:54.821Z,29.7270
2024-03-05T11:33:56.984Z,29.6920
2024-03-05T11:34:59.282Z,29.6200
2024-03-05T11:36:01.380Z,29.5740
2024-03-05T11:37:03.558Z,29.5080
2024-03-05T11:38:05.812Z,29.4750
2024-03-05T11:39:07.984Z,29.4990
2024-03-05T11:40:11.746Z,29.5320
2024-03-05T11:41:12.500Z,29.5270
2024-03-05T11:42:14.714Z,29.5270
2024-03-05T11:43:14.803Z,29.5360
2024-03-05T11:44:17.035Z,29.5470
2024-03-05T11:45:19.295Z,29.5630
2024-03-05T11:46:21.573Z,29.5690
2024-03-05T11:47:23.825Z,29.5920
2024-03-05T11:48:25.952Z,29.6030
2024-03-05T11:49:28.188Z,29.6250
2024-03-05T11:50:30.356Z,29.6330
2024-03-05T11:51:32.566Z,29.6500
2024-03-05T11:52:34.784Z,29.6610
2024-03-05T11:53:36.978Z,29.6610
2024-03-05T11:54:39.158Z,29.6720
2024-03-05T11:55:41.391Z,29.7000
2024-03-05T11:56:41.394Z,29.6950
2024-03-05T11:57:43.587Z,29.7170
2024-03-05T11:58:45.802Z,29.7220
2024-03-05T11:59:47.870Z,29.7460
2024-03-05T12:00:49.992Z,29.7220
2024-03-05T12:01:52.148Z,29.7460
2024-03-05T12:02:54.223Z,29.7620
2024-03-05T12:03:56.291Z,29.7790
2024-03-05T12:04:58.445Z,29.7790
2024-03-05T12:06:00.505Z,29.8070
2024-03-05T12:07:02.691Z,29.8290
2024-03-05T12:08:04.911Z,29.8290
2024-03-05T12:09:07.086Z,29.8460
2024-03-05T12:10:07.098Z,29.8350
2024-03-05T12:11:09.393Z,29.8460
2024-03-05T12:12:11.509Z,29.8690
2024-03-05T12:13:13.737Z,29.8800
2024-03-05T12:14:15.976Z,29.8850
2024-03-05T12:15:18.175Z,29.8510
2024-03-05T12:16:20.445Z,29.8750
2024-03-05T12:17:22.669Z,29.8800
2024-03-05T12:18:24.901Z,29.8850
2024-03-05T12:19:27.172Z,29.8850
2024-03-05T12:20:29.373Z,29.8800
2024-03-05T12:21:33.549Z,29.8800
2024-03-05T12:22:33.912Z,29.8850
2024-03-05T12:23:41.581Z,29.8800
2024-03-05T12:24:36.300Z,29.9060
2024-03-05T12:25:38.320Z,29.8960
2024-03-05T12:26:40.488Z,29.8960
2024-03-05T12:27:42.725Z,29.9020
2024-03-05T12:28:44.924Z,29.9070
2024-03-05T12:29:47.249Z,29.8960
2024-03-05T12:30:49.258Z,29.8800
2024-03-05T12:31:51.514Z,29.8870
2024-03-05T12:32:53.696Z,29.8710
2024-03-05T12:33:55.879Z,29.8820
2024-03-05T12:34:56.060Z,29.8820